Latest Weather Observations for Mount Buller

IDV60801

Issued at 5:22 pm EST Monday 10 August 2020 (issued every 10 minutes, with the page automatically refreshed every 10 minutes)

About weather observations | Map of weather stations | Latest weather observations for VIC | Other Formats
Station Details ID: 083024 Name: MOUNT BULLER Lat: -37.15 Lon: 146.44 Height: 1707.0 m
Data from the previous 72 hours. | See also: Recent months at Mount Buller
Date/Time
EST
Temp
°C
App
Temp
°C
Dew
Point
°C
Rel
Hum
%
Delta-T
°C
Wind Press
QNH
hPa
Press
MSL
hPa
Rain since
9am
mm
Dir  Spd
km/h
Gust
km/h
Spd
kts
Gust
kts
10/05:00pm 3.8 0.2 -2.0 66 2.3 NNE 7 9 4 5 - - 0.0
10/04:30pm 5.0 1.7 -1.4 63 2.6 NNE 6 9 3 5 - - 0.0
10/04:00pm 5.3 1.6 -2.5 57 3.1 ENE 7 19 4 10 - - 0.0
10/03:30pm 6.2 3.1 0.3 66 2.6 NE 6 7 3 4 - - 0.0
10/03:00pm 5.4 2.0 -2.2 58 3.1 E 6 11 3 6 - - 0.0
10/02:30pm 6.4 3.5 -0.8 60 3.1 ESE 4 6 2 3 - - 0.0
10/02:00pm 5.7 1.6 -3.1 53 3.5 E 9 15 5 8 - - 0.0
10/01:30pm 5.9 1.8 -6.3 41 4.5 E 7 13 4 7 - - 0.0
10/01:00pm 5.5 1.0 -6.7 41 4.4 SE 9 15 5 8 - - 0.0
10/12:30pm 5.6 0.5 -9.4 33 5.1 E 11 17 6 9 - - 0.0
10/12:00pm 5.3 0.2 -8.9 35 4.9 ESE 11 19 6 10 - - 0.0
10/11:30am 4.8 -1.1 -9.7 34 5.1 SE 15 22 8 12 - - 0.0
10/11:00am 4.5 -2.4 -10.7 32 5.2 SSE 20 33 11 18 - - 0.0
10/10:30am 6.8 -0.3 -16.5 17 6.8 ESE 19 28 10 15 - - 0.0
10/10:00am 3.5 -3.1 -9.1 39 4.4 SE 19 26 10 14 - - 0.0
10/09:30am 4.6 -2.8 -12.8 27 5.6 ESE 22 30 12 16 - - 0.0
10/09:00am 2.2 -6.3 -11.3 36 4.3 SE 28 35 15 19 - - 0.0
10/08:30am 1.1 -7.2 -9.5 45 3.5 SE 28 37 15 20 - - 0.0
10/08:00am 1.1 -6.1 -9.8 44 3.5 SE 22 30 12 16 - - 0.0
10/07:30am 0.9 -7.1 -10.5 42 3.6 SSE 26 39 14 21 - - 0.0
10/07:00am 0.0 -7.9 -8.7 52 2.8 SSE 26 39 14 21 - - 0.0
10/06:30am 0.4 -6.7 -8.5 51 2.9 SE 22 32 12 17 - - 0.0
10/06:00am 0.2 -8.5 -8.7 51 2.9 SE 30 46 16 25 - - 0.0
10/05:55am 0.5 -7.8 -8.7 50 3.0 SE 28 46 15 25 - - 0.0
10/05:30am 0.3 -6.2 -8.4 52 2.9 SSE 19 32 10 17 - - 0.0
10/05:00am -0.7 -8.4 -6.6 64 2.0 SSE 26 33 14 18 - - 0.0
10/04:39am 0.2 -8.0 -8.0 54 2.7 SSE 28 46 15 25 - - 0.0
10/04:30am 0.4 -7.5 -8.5 51 2.9 SSE 26 44 14 24 - - 0.0
10/04:00am -0.6 -8.7 -6.8 63 2.1 SE 28 37 15 20 - - 0.0
10/03:30am -0.8 -9.7 -5.6 70 1.6 SE 33 43 18 23 - - 0.0
10/03:00am -1.0 -9.8 -4.7 76 1.3 SE 33 43 18 23 - - 0.0
10/02:30am -0.9 -9.6 -5.1 73 1.4 SE 32 46 17 25 - - 0.0
10/02:00am -0.5 -9.5 -6.1 66 1.9 SE 33 54 18 29 - - 0.0
10/01:30am -0.6 -10.6 -4.8 73 1.5 SE 39 57 21 31 - - 0.0
10/01:08am -1.2 -10.3 -3.2 86 0.7 SE 35 54 19 29 - - 0.0
10/01:00am -1.3 -10.4 -3.2 87 0.6 SE 35 50 19 27 - - 0.0
10/12:30am -1.1 -11.2 -2.7 89 0.5 SE 41 61 22 33 - - 0.0
10/12:00am -1.4 -10.7 -2.2 94 0.2 SE 37 57 20 31 - - 0.0
 
Date/Time
EST
Temp
°C
App
Temp
°C
Dew
Point
°C
Rel
Hum
%
Delta-T
°C
Wind Press
QNH
hPa
Press
MSL
hPa
Rain since
9am
mm
Dir  Spd
km/h
Gust
km/h
Spd
kts
Gust
kts
09/11:52pm -1.3 -11.0 -2.0 95 0.2 SE 39 57 21 31 - - 0.0
09/11:30pm -1.3 -11.7 -1.6 98 0.0 SE 43 54 23 29 - - 0.0
09/11:00pm -0.8 -10.3 -0.9 99 0.0 SSE 39 52 21 28 - - 0.0
09/10:30pm -0.8 -9.6 -0.9 99 0.0 SE 35 46 19 25 - - 0.0
09/10:00pm -0.4 -9.5 -0.5 99 0.0 SE 37 57 20 31 - - 0.0
09/09:30pm -0.3 -8.4 -0.4 99 0.0 SSE 32 52 17 28 - - 0.0
09/09:00pm -0.5 -8.3 -0.6 99 0.0 SE 30 50 16 27 - - 0.0
09/08:30pm -0.5 -10.0 -0.8 98 0.1 SE 39 61 21 33 - - 0.0
09/08:00pm -0.4 -10.6 -0.5 99 0.0 SE 43 67 23 36 - - 0.0
09/07:45pm -0.6 -11.0 -0.7 99 0.0 SE 44 63 24 34 - - 0.0
09/07:30pm -0.5 -12.1 -0.6 99 0.0 SSE 50 67 27 36 - - 0.0
09/07:00pm -0.5 -10.9 -0.6 99 0.0 SSE 44 69 24 37 - - 0.0
09/06:30pm -0.4 -10.8 -0.5 99 0.0 SSE 44 70 24 38 - - 0.0
09/06:00pm -0.3 -9.8 -0.4 99 0.0 SSE 39 59 21 32 - - 0.0
09/05:30pm 0.0 -9.0 -0.1 99 0.0 SSE 37 59 20 32 - - 0.0
09/05:00pm 0.2 -8.0 0.1 99 0.0 SSE 33 52 18 28 - - 0.0
09/04:43pm 0.3 -7.0 -0.1 97 0.2 SSE 28 46 15 25 - - 0.0
09/04:30pm 0.4 -5.8 -0.2 96 0.2 SSE 22 39 12 21 - - 0.0
09/04:00pm 0.5 -6.9 -0.6 92 0.4 SSE 28 43 15 23 - - 0.0
09/03:30pm 1.0 -5.9 0.1 94 0.4 SSE 26 37 14 20 - - 0.0
09/03:00pm 1.1 -6.2 0.2 94 0.4 SSE 28 44 15 24 - - 0.0
09/02:30pm 1.1 -6.9 0.1 93 0.4 SSE 32 54 17 29 - - 0.0
09/02:21pm 1.1 -6.5 0.4 95 0.3 SSE 30 54 16 29 - - 0.0
09/02:00pm 0.9 -6.3 0.5 97 0.2 SSE 28 44 15 24 - - 0.0
09/01:44pm 0.7 -8.6 0.3 97 0.2 SSE 39 57 21 31 - - 0.0
09/01:30pm 0.7 -7.5 0.3 97 0.2 SSE 33 46 18 25 - - 0.0
09/01:20pm 0.9 -7.3 0.2 95 0.3 SSE 33 54 18 29 - - 0.0
09/01:00pm 0.9 -9.5 -0.1 93 0.4 SSE 44 57 24 31 - - 0.0
09/12:30pm 0.9 -9.4 -0.7 89 0.6 SSE 43 65 23 35 - - 0.0
09/12:00pm 0.6 -10.5 -0.3 94 0.4 SSE 48 70 26 38 - - 0.0
09/11:41am 0.5 -9.7 -0.6 92 0.4 SSE 43 61 23 33 - - 0.0
09/11:30am 0.4 -9.9 -0.7 92 0.5 SSE 43 56 23 30 - - 0.0
09/11:06am 0.2 -11.0 -0.6 94 0.3 SE 48 67 26 36 - - 0.0
09/11:00am 0.3 -11.3 -0.5 94 0.3 SE 50 65 27 35 - - 0.0
09/10:30am 0.2 -12.1 -0.2 97 0.2 SE 54 69 29 37 - - 0.0
09/10:00am 0.1 -11.1 -0.5 96 0.2 SE 48 70 26 38 - - 0.0
09/09:49am 0.3 -11.6 -0.5 94 0.3 SSE 52 70 28 38 - - 0.0
09/09:30am 0.0 -11.2 -0.4 97 0.2 SE 48 63 26 34 - - 0.0
09/09:00am -0.1 -13.0 -0.8 95 0.3 SE 57 76 31 41 - - 2.2
09/08:30am -0.3 -13.0 -0.7 97 0.1 SE 56 78 30 42 - - 2.2
09/08:00am -0.3 -13.1 -0.9 96 0.2 SE 56 76 30 41 - - 2.2
09/07:30am -0.2 -12.2 -0.9 95 0.3 SE 52 76 28 41 - - 2.2
09/07:27am -0.1 -10.9 -0.8 95 0.3 SE 46 76 25 41 - - 2.2
09/07:26am -0.2 -10.7 -0.8 96 0.2 SE 44 69 24 37 - - 2.2
09/07:00am -0.4 -9.1 -0.5 99 0.0 SE 35 59 19 32 - - 2.2
09/06:30am -0.6 -8.8 -0.7 99 0.0 SSE 32 50 17 27 - - 2.2
09/06:00am -0.7 -9.4 -0.8 99 0.0 SSE 35 54 19 29 - - 2.2
09/05:41am -0.7 -8.9 -0.8 99 0.0 SSE 32 50 17 27 - - 2.2
09/05:30am -0.9 -9.1 -1.0 99 0.0 SSE 32 46 17 25 - - 2.2
09/05:02am -1.0 -9.8 -1.1 99 0.0 SSE 35 54 19 29 - - 2.2
09/05:00am -0.8 -9.9 -0.9 99 0.0 SSE 37 54 20 29 - - 2.2
09/04:41am -0.9 -10.1 -1.0 99 0.0 SSE 37 56 20 30 - - 2.2
09/04:30am -1.0 -10.2 -1.1 99 0.0 SSE 37 52 20 28 - - 2.2
09/04:22am -0.9 -8.3 -1.0 99 0.0 SSE 28 52 15 28 - - 2.2
09/04:00am -1.2 -9.4 -1.3 99 0.0 SSE 32 44 17 24 - - 2.2
09/03:30am -1.0 -11.0 -1.4 97 0.1 SSE 41 59 22 32 - - 2.2
09/03:00am -0.9 -9.7 -1.0 99 0.0 SSE 35 54 19 29 - - 2.2
09/02:41am -0.7 -9.4 -0.8 99 0.0 SSE 35 54 19 29 - - 2.2
09/02:30am -0.6 -9.3 -0.7 99 0.0 SSE 35 50 19 27 - - 2.2
09/02:00am -0.4 -9.1 -0.5 99 0.0 SSE 35 52 19 28 - - 2.2
09/01:38am -0.4 -8.2 -0.5 99 0.0 SSE 30 48 16 26 - - 2.2
09/01:30am -0.3 -8.4 -0.4 99 0.0 SSE 32 48 17 26 - - 2.2
09/01:00am -0.1 -8.8 -0.2 99 0.0 SSE 35 54 19 29 - - 2.2
09/12:53am 0.0 -8.6 -0.1 99 0.0 SSE 35 54 19 29 - - 2.2
09/12:30am -0.1 -8.2 -0.2 99 0.0 SSE 32 44 17 24 - - 2.2
09/12:00am 0.5 -7.1 0.4 99 0.0 SSE 30 44 16 24 - - 2.2
 
Date/Time
EST
Temp
°C
App
Temp
°C
Dew
Point
°C
Rel
Hum
%
Delta-T
°C
Wind Press
QNH
hPa
Press
MSL
hPa
Rain since
9am
mm
Dir  Spd
km/h
Gust
km/h
Spd
kts
Gust
kts
08/11:35pm 0.9 -7.0 0.8 99 0.0 SE 32 50 17 27 - - 2.2
08/11:30pm 1.1 -7.4 1.0 99 0.0 SE 35 50 19 27 - - 2.2
08/11:00pm 1.1 -8.1 1.0 99 0.0 SE 39 61 21 33 - - 2.2
08/10:30pm 1.4 -8.2 1.3 99 0.0 SE 41 61 22 33 - - 2.2
08/10:00pm 1.1 -8.5 1.0 99 0.0 SE 41 61 22 33 - - 2.2
08/09:52pm 1.1 -8.5 1.0 99 0.0 SE 41 59 22 32 - - 2.2
08/09:30pm 1.1 -8.5 1.0 99 0.0 SE 41 54 22 29 - - 2.2
08/09:13pm 0.9 -7.0 0.8 99 0.0 SE 32 50 17 27 - - 2.2
08/09:00pm 1.0 -7.5 0.9 99 0.0 SE 35 48 19 26 - - 2.2
08/08:30pm 0.9 -8.4 0.8 99 0.0 SE 39 50 21 27 - - 2.2
08/08:00pm 1.0 -7.1 0.9 99 0.0 SE 33 52 18 28 - - 2.2
08/07:57pm 1.0 -7.1 0.9 99 0.0 SE 33 52 18 28 - - 2.2
08/07:30pm 1.0 -6.2 0.9 99 0.0 ESE 28 39 15 21 - - 2.2
08/07:00pm 1.0 -7.5 0.9 99 0.0 SE 35 50 19 27 - - 2.2
08/06:50pm 1.1 -7.0 1.0 99 0.0 SE 33 54 18 29 - - 2.2
08/06:30pm 1.3 -6.8 1.2 99 0.0 SE 33 50 18 27 - - 2.2
08/06:21pm 1.2 -6.7 1.1 99 0.0 SE 32 50 17 27 - - 2.2
08/06:00pm 1.1 -6.1 1.0 99 0.0 SE 28 41 15 22 - - 2.2
08/05:30pm 1.2 -6.7 1.1 99 0.0 SE 32 43 17 23 - - 2.2
08/05:23pm 1.1 -6.4 1.0 99 0.0 SE 30 48 16 26 - - 2.2
08/05:00pm 1.1 -7.0 1.0 99 0.0 SE 33 50 18 27 - - 2.2
08/04:30pm 1.0 -7.1 0.9 99 0.0 SE 33 46 18 25 - - 2.2
08/04:00pm 0.9 -6.7 0.8 99 0.0 SE 30 48 16 26 - - 2.2
08/03:57pm 0.9 -6.7 0.8 99 0.0 SE 30 48 16 26 - - 2.2
08/03:30pm 0.8 -6.8 0.7 99 0.0 SE 30 44 16 24 - - 2.0
08/03:00pm 0.8 -5.6 0.7 99 0.0 SE 24 37 13 20 - - 2.0
08/02:30pm 0.8 -5.6 0.7 99 0.0 SE 24 39 13 21 - - 2.0
08/02:00pm 1.0 -6.2 0.9 99 0.0 ESE 28 44 15 24 - - 2.0
08/01:54pm 1.1 -6.1 1.0 99 0.0 ESE 28 48 15 26 - - 2.0
08/01:30pm 1.1 -5.7 1.0 99 0.0 ESE 26 39 14 21 - - 2.0
08/01:00pm 1.0 -6.2 0.9 99 0.0 ESE 28 39 15 21 - - 2.0
08/12:34pm 0.9 -6.7 0.8 99 0.0 ESE 30 48 16 26 - - 2.0
08/12:30pm 0.9 -7.2 0.8 99 0.0 ESE 33 48 18 26 - - 2.0
08/12:03pm 0.8 -6.8 0.7 99 0.0 ESE 30 54 16 29 - - 2.0
08/12:00pm 0.7 -6.9 0.6 99 0.0 ESE 30 44 16 24 - - 2.0
08/11:30am 0.7 -6.9 0.6 99 0.0 E 30 44 16 24 - - 2.0
08/11:10am 0.6 -6.6 0.5 99 0.0 E 28 46 15 25 - - 2.0
08/11:00am 0.5 -6.0 0.4 99 0.0 E 24 41 13 22 - - 2.0
08/10:38am 0.6 -6.6 0.5 99 0.0 ENE 28 46 15 25 - - 2.0
08/10:30am 0.6 -7.0 0.5 99 0.0 ENE 30 46 16 25 - - 2.0
08/10:12am 0.6 -6.6 0.5 99 0.0 ENE 28 46 15 25 - - 1.8
08/10:00am 0.5 -6.0 0.4 99 0.0 ENE 24 37 13 20 - - 1.4
08/09:30am 0.2 -5.6 0.1 99 0.0 ENE 20 35 11 19 - - 1.0
08/09:00am 0.1 -5.5 0.0 99 0.0 E 19 32 10 17 - - 8.6
08/08:30am 0.0 -6.2 -0.1 99 0.0 E 22 33 12 18 - - 8.0
08/08:00am 0.0 -6.6 -0.1 99 0.0 E 24 35 13 19 - - 7.8
08/07:30am -0.1 -6.7 -0.2 99 0.0 E 24 35 13 19 - - 7.8
08/07:00am -0.1 -7.1 -0.2 99 0.0 E 26 39 14 21 - - 7.2
08/06:30am -0.1 -7.1 -0.2 99 0.0 E 26 33 14 18 - - 7.0
08/06:00am -0.2 -7.5 -0.3 99 0.0 ESE 28 35 15 19 - - 7.0
08/05:30am -0.3 -7.3 -0.4 99 0.0 ESE 26 37 14 20 - - 7.0
08/05:00am -0.2 -7.5 -0.3 99 0.0 ESE 28 37 15 20 - - 7.0
08/04:30am -0.3 -6.5 -0.4 99 0.0 E 22 35 12 19 - - 7.0
08/04:00am 0.0 -6.9 -0.1 99 0.0 E 26 37 14 20 - - 7.0
08/03:30am -0.2 -7.9 -0.3 99 0.0 E 30 43 16 23 - - 7.0
08/03:00am 0.0 -7.3 -0.1 99 0.0 E 28 41 15 22 - - 7.0
08/02:30am -0.4 -7.0 -0.5 99 0.0 E 24 43 13 23 - - 7.0
08/02:00am -0.5 -7.5 -0.6 99 0.0 E 26 37 14 20 - - 6.4
08/01:30am -0.1 -7.1 -0.2 99 0.0 ENE 26 41 14 22 - - 5.8
08/01:00am -0.8 -7.9 -0.9 99 0.0 ENE 26 39 14 21 - - 5.6
08/12:30am -0.7 -8.1 -0.8 99 0.0 ENE 28 39 15 21 - - 5.2
08/12:02am -0.6 -8.4 -0.7 99 0.0 ENE 30 48 16 26 - - 4.8
08/12:00am -0.8 -8.6 -0.9 99 0.0 ENE 30 46 16 25 - - 4.8
 
Date/Time
EST
Temp
°C
App
Temp
°C
Dew
Point
°C
Rel
Hum
%
Delta-T
°C
Wind Press
QNH
hPa
Press
MSL
hPa
Rain since
9am
mm
Dir  Spd
km/h
Gust
km/h
Spd
kts
Gust
kts
07/11:30pm -0.7 -8.5 -0.8 99 0.0 ENE 30 50 16 27 - - 4.2
07/11:00pm -0.9 -8.7 -1.0 99 0.0 ENE 30 52 16 28 - - 4.0
07/10:30pm -0.8 -9.2 -0.9 99 0.0 E 33 54 18 29 - - 3.6
07/10:06pm -0.8 -9.2 -0.9 99 0.0 E 33 52 18 28 - - 3.4
07/10:00pm -0.9 -9.7 -1.0 99 0.0 E 35 52 19 28 - - 3.4
07/09:39pm -0.8 -9.6 -0.9 99 0.0 E 35 54 19 29 - - 3.2
07/09:30pm -0.7 -10.2 -0.8 99 0.0 E 39 52 21 28 - - 3.2
07/09:00pm -0.8 -11.1 -0.9 99 0.0 E 43 57 23 31 - - 2.8
07/08:30pm -1.0 -12.6 -1.1 99 0.0 E 50 70 27 38 - - 2.0
07/08:07pm -0.9 -11.8 -1.0 99 0.0 E 46 72 25 39 - - 1.6
07/08:00pm -0.9 -11.8 -1.0 99 0.0 E 46 61 25 33 - - 1.6
07/07:30pm -1.1 -11.4 -1.2 99 0.0 ESE 43 63 23 34 - - 1.0
07/07:00pm -1.1 -12.0 -1.2 99 0.0 ESE 46 72 25 39 - - 0.8
07/06:32pm -1.1 -12.0 -1.2 99 0.0 ESE 46 65 25 35 - - 0.8
07/06:30pm -1.1 -12.0 -1.2 99 0.0 ESE 46 61 25 33 - - 0.8
07/06:00pm -1.1 -12.4 -1.2 99 0.0 ESE 48 72 26 39 - - 0.6
07/05:30pm -0.9 -11.8 -1.0 99 0.0 ESE 46 70 25 38 - - 0.4

Other formats

Comma delimited format used in spreadsheet applications
http://www.bom.gov.au/fwo/IDV60801/IDV60801.94894.axf

JavaScript Object Notation format (JSON) in row-major order
http://www.bom.gov.au/fwo/IDV60801/IDV60801.94894.json

Data quality

Most of these data are generated automatically and are frequently updated. Quality checks on data are not normally performed. It is possible for incorrect values to appear. Refer to information at About Latest Weather Observations and please check the disclaimer before using these data.